createdAt,value
2022-08-05T00:00:46.303Z,33.25
2022-08-05T00:02:07.652Z,33.08
2022-08-05T00:03:24.966Z,32.90
2022-08-05T00:04:33.364Z,32.81
2022-08-05T00:06:06.404Z,32.73
2022-08-05T00:07:26.995Z,32.58
2022-08-05T00:08:48.989Z,32.42
2022-08-05T00:10:01.689Z,32.30
2022-08-05T00:11:20.646Z,32.30
2022-08-05T00:12:55.922Z,32.22
2022-08-05T00:14:12.802Z,32.12
2022-08-05T00:15:55.999Z,32.09
2022-08-05T00:17:02.966Z,32.07
2022-08-05T00:18:21.686Z,31.96
2022-08-05T00:19:45.873Z,31.92
2022-08-05T00:21:04.791Z,31.85
2022-08-05T00:22:18.000Z,31.71
2022-08-05T00:23:44.183Z,31.57
2022-08-05T00:24:56.849Z,31.51
2022-08-05T00:26:05.874Z,31.43
2022-08-05T00:27:17.156Z,31.25
2022-08-05T00:28:29.813Z,31.16
2022-08-05T00:29:38.461Z,30.98
2022-08-05T00:30:46.667Z,30.90
2022-08-05T00:32:10.642Z,30.86
2022-08-05T00:34:56.930Z,30.86
2022-08-05T00:35:06.673Z,30.80
2022-08-05T00:37:11.496Z,30.70
2022-08-05T00:37:54.659Z,30.61
2022-08-05T00:39:03.339Z,30.61
2022-08-05T00:40:14.233Z,30.64
2022-08-05T00:41:51.606Z,30.58
2022-08-05T00:43:02.802Z,30.51
2022-08-05T00:44:17.802Z,30.47
2022-08-05T00:45:37.909Z,30.38
2022-08-05T00:46:54.165Z,30.34
2022-08-05T00:48:15.062Z,30.32
2022-08-05T00:49:26.769Z,30.27
2022-08-05T00:50:46.108Z,30.20
2022-08-05T00:51:55.567Z,30.19
2022-08-05T00:53:09.487Z,30.12
2022-08-05T00:54:35.080Z,30.06
2022-08-05T00:55:43.768Z,30.10
2022-08-05T00:56:52.678Z,30.07
2022-08-05T00:58:00.797Z,30.01
2022-08-05T00:59:10.081Z,30.00
2022-08-05T01:00:17.678Z,30.03
2022-08-05T01:01:42.892Z,30.02
2022-08-05T01:02:59.850Z,29.98
2022-08-05T01:04:13.686Z,29.94
2022-08-05T01:05:23.968Z,29.94
2022-08-05T01:06:38.207Z,29.95
2022-08-05T01:08:39.202Z,29.94
2022-08-05T01:09:20.094Z,29.95
2022-08-05T01:11:05.684Z,29.96
2022-08-05T01:12:19.182Z,29.86
2022-08-05T01:13:58.421Z,29.82
2022-08-05T01:15:18.703Z,29.78
2022-08-05T01:17:08.587Z,29.73
2022-08-05T01:18:18.857Z,29.70
2022-08-05T01:20:01.366Z,29.69
2022-08-05T01:21:23.087Z,29.69
2022-08-05T01:23:15.346Z,29.63
2022-08-05T01:24:50.767Z,29.54
2022-08-05T01:26:34.752Z,29.54
2022-08-05T01:28:22.233Z,29.51
2022-08-05T01:29:34.958Z,29.43
2022-08-05T01:30:46.561Z,29.39
2022-08-05T01:32:05.542Z,29.35
2022-08-05T01:33:21.460Z,29.28
2022-08-05T01:34:47.915Z,29.23
2022-08-05T01:35:59.093Z,29.21
2022-08-05T01:37:24.475Z,29.20
2022-08-05T01:38:35.100Z,29.14
2022-08-05T01:39:47.320Z,29.10
2022-08-05T01:40:56.356Z,29.05
2022-08-05T01:42:04.939Z,28.99
2022-08-05T01:43:22.056Z,28.95
2022-08-05T01:44:35.834Z,28.91
2022-08-05T01:45:45.253Z,28.87
2022-08-05T01:47:07.479Z,28.83
2022-08-05T01:48:20.554Z,28.84
2022-08-05T01:50:00.372Z,28.80
2022-08-05T01:51:12.370Z,28.78
2022-08-05T01:52:25.101Z,28.74
2022-08-05T01:53:57.958Z,28.68
2022-08-05T01:55:11.081Z,28.62
2022-08-05T01:58:09.265Z,28.62
2022-08-05T01:58:29.124Z,28.60
2022-08-05T01:59:24.009Z,28.55
2022-08-05T02:00:41.285Z,28.55
2022-08-05T02:01:54.844Z,28.53
2022-08-05T02:03:41.037Z,28.52
2022-08-05T02:04:50.044Z,28.47
2022-08-05T02:06:01.048Z,28.46
2022-08-05T02:07:21.687Z,28.49
2022-08-05T02:08:32.370Z,28.52
2022-08-05T02:09:42.268Z,28.54
2022-08-05T02:11:01.860Z,28.53
2022-08-05T02:12:14.703Z,28.50
2022-08-05T02:13:36.581Z,28.43
2022-08-05T02:15:33.598Z,28.35
2022-08-05T02:16:54.871Z,28.28
2022-08-05T02:18:36.207Z,28.23
2022-08-05T02:19:47.746Z,28.14
2022-08-05T02:21:15.004Z,28.08
2022-08-05T02:22:35.464Z,28.02
2022-08-05T02:23:53.014Z,27.95
2022-08-05T02:25:20.661Z,27.87
2022-08-05T02:26:55.130Z,27.79
2022-08-05T02:28:08.968Z,27.74
2022-08-05T02:29:26.097Z,27.72
2022-08-05T02:30:57.335Z,27.63
2022-08-05T02:32:09.146Z,27.58
2022-08-05T02:33:36.028Z,27.54
2022-08-05T02:34:54.862Z,27.50
2022-08-05T02:36:05.260Z,27.44
2022-08-05T02:37:16.490Z,27.44
2022-08-05T02:38:26.958Z,27.41
2022-08-05T02:39:47.649Z,27.36
2022-08-05T02:41:06.295Z,27.32
2022-08-05T02:42:27.641Z,27.28
2022-08-05T02:44:02.254Z,27.24
2022-08-05T02:45:11.992Z,27.20
2022-08-05T02:46:27.634Z,27.19
2022-08-05T02:48:07.357Z,27.18
2022-08-05T02:49:07.266Z,27.14
2022-08-05T02:50:21.312Z,27.11
2022-08-05T02:52:04.005Z,27.07
2022-08-05T02:53:00.701Z,27.01
2022-08-05T02:54:08.412Z,26.98
2022-08-05T02:55:54.046Z,26.98
2022-08-05T02:56:49.946Z,26.92
2022-08-05T02:58:09.912Z,26.88
2022-08-05T02:59:30.748Z,26.87
2022-08-05T03:01:03.194Z,26.84
2022-08-05T03:02:12.052Z,26.82
2022-08-05T03:03:24.692Z,26.81
2022-08-05T03:04:35.325Z,26.80
2022-08-05T03:06:54.598Z,26.77
2022-08-05T03:07:17.595Z,26.70
2022-08-05T03:08:47.904Z,26.65
2022-08-05T03:10:02.328Z,26.60
2022-08-05T03:11:56.620Z,26.57
2022-08-05T03:14:08.167Z,26.49
2022-08-05T03:15:17.550Z,26.46
2022-08-05T03:16:27.127Z,26.46
2022-08-05T03:17:41.455Z,26.46
2022-08-05T03:18:50.475Z,26.45
2022-08-05T03:20:01.166Z,26.43
2022-08-05T03:21:14.609Z,26.42
2022-08-05T03:22:32.445Z,26.37
2022-08-05T03:23:46.243Z,26.32
2022-08-05T03:24:54.380Z,26.27
2022-08-05T03:26:31.700Z,26.23
2022-08-05T03:27:59.660Z,26.21
2022-08-05T03:29:12.687Z,26.18
2022-08-05T03:30:28.668Z,26.16
2022-08-05T03:31:56.868Z,26.13
2022-08-05T03:33:09.718Z,26.09
2022-08-05T03:34:18.416Z,26.05
2022-08-05T03:35:26.528Z,26.03
2022-08-05T03:36:38.604Z,26.00
2022-08-05T03:37:49.180Z,25.98
2022-08-05T03:39:19.940Z,25.97
2022-08-05T03:40:35.818Z,25.96
2022-08-05T03:41:45.272Z,25.96
2022-08-05T03:42:55.934Z,25.94
2022-08-05T03:44:11.673Z,25.94
2022-08-05T03:45:23.517Z,25.94
2022-08-05T03:46:36.455Z,25.93
2022-08-05T03:47:45.441Z,25.91
2022-08-05T03:48:55.199Z,25.90
2022-08-05T03:50:04.771Z,25.89
2022-08-05T03:52:49.113Z,25.88
2022-08-05T03:55:53.955Z,25.84
2022-08-05T03:56:05.294Z,25.83
2022-08-05T03:56:46.674Z,25.81
2022-08-05T03:57:56.132Z,25.79
2022-08-05T03:59:07.545Z,25.78
2022-08-05T04:00:17.520Z,25.76
2022-08-05T04:01:28.336Z,25.75
2022-08-05T04:02:52.271Z,25.75
2022-08-05T04:04:10.604Z,25.74
2022-08-05T04:05:23.214Z,25.75
2022-08-05T04:06:36.787Z,25.75
2022-08-05T04:07:53.525Z,25.75
2022-08-05T04:09:10.325Z,25.74
2022-08-05T04:10:19.778Z,25.73
2022-08-05T04:11:50.712Z,25.72
2022-08-05T04:13:03.411Z,25.70
2022-08-05T04:14:18.099Z,25.70
2022-08-05T04:15:27.796Z,25.69
2022-08-05T04:16:41.723Z,25.68
2022-08-05T04:17:56.339Z,25.67
2022-08-05T04:19:10.492Z,25.65
2022-08-05T04:20:26.382Z,25.64
2022-08-05T04:22:10.038Z,25.64
2022-08-05T04:23:07.497Z,25.64
2022-08-05T04:24:22.777Z,25.64
2022-08-05T04:25:56.693Z,25.63
2022-08-05T04:27:07.333Z,25.62
2022-08-05T04:28:17.447Z,25.61
2022-08-05T04:29:29.219Z,25.61
2022-08-05T04:30:42.965Z,25.62
2022-08-05T04:31:56.864Z,25.62
2022-08-05T04:33:07.234Z,25.62
2022-08-05T04:34:31.320Z,25.61
2022-08-05T04:36:15.581Z,25.61
2022-08-05T04:37:16.228Z,25.60
2022-08-05T04:38:39.714Z,25.61
2022-08-05T04:39:52.874Z,25.60
2022-08-05T04:41:08.154Z,25.58
2022-08-05T04:42:19.989Z,25.56
2022-08-05T04:43:35.853Z,25.56
2022-08-05T04:44:46.192Z,25.56
2022-08-05T04:45:55.815Z,25.56
2022-08-05T04:47:08.953Z,25.55
2022-08-05T04:48:27.827Z,25.55
2022-08-05T04:49:39.004Z,25.52
2022-08-05T04:51:11.019Z,25.49
2022-08-05T04:52:20.418Z,25.49
2022-08-05T04:53:33.683Z,25.49
2022-08-05T04:54:44.429Z,25.49
2022-08-05T04:56:33.028Z,25.47
2022-08-05T04:57:24.242Z,25.41
2022-08-05T04:58:38.815Z,25.37
2022-08-05T04:59:48.175Z,25.35
2022-08-05T05:00:55.763Z,25.32
2022-08-05T05:02:06.686Z,25.30
2022-08-05T05:03:20.241Z,25.24
2022-08-05T05:04:28.522Z,25.21
2022-08-05T05:06:39.104Z,25.19
2022-08-05T05:07:04.923Z,25.17
2022-08-05T05:08:26.703Z,25.13
2022-08-05T05:09:40.256Z,25.09
2022-08-05T05:10:56.005Z,25.06
2022-08-05T05:12:06.166Z,25.00
2022-08-05T05:13:18.741Z,24.98
2022-08-05T05:14:32.480Z,24.94
2022-08-05T05:15:57.806Z,24.91
2022-08-05T05:17:10.561Z,24.86
2022-08-05T05:18:28.355Z,24.83
2022-08-05T05:19:44.357Z,24.78
2022-08-05T05:20:58.519Z,24.76
2022-08-05T05:22:22.907Z,24.73
2022-08-05T05:23:39.228Z,24.71
2022-08-05T05:25:16.420Z,24.68
2022-08-05T05:26:32.798Z,24.67
2022-08-05T05:27:45.538Z,24.65
2022-08-05T05:28:58.180Z,24.62
2022-08-05T05:30:06.081Z,24.60
2022-08-05T05:31:24.521Z,24.59
2022-08-05T05:32:33.879Z,24.57
2022-08-05T05:33:59.806Z,24.56
2022-08-05T05:35:19.982Z,24.55
2022-08-05T05:36:31.157Z,24.54
2022-08-05T05:37:59.925Z,24.53
2022-08-05T05:39:11.024Z,24.51
2022-08-05T05:40:22.241Z,24.48
2022-08-05T05:41:40.739Z,24.46
2022-08-05T05:42:51.231Z,24.46
2022-08-05T05:44:00.880Z,24.45
2022-08-05T05:45:10.002Z,24.45
2022-08-05T05:46:26.196Z,24.44
2022-08-05T05:48:06.852Z,24.43
2022-08-05T05:49:06.496Z,24.42
2022-08-05T05:50:30.797Z,24.41
2022-08-05T05:51:50.697Z,24.41
2022-08-05T05:53:00.994Z,24.41
2022-08-05T05:54:08.629Z,24.39
2022-08-05T05:55:20.273Z,24.35
2022-08-05T05:56:34.745Z,24.35
2022-08-05T05:57:52.714Z,24.32
2022-08-05T05:59:03.504Z,24.30
2022-08-05T06:00:15.510Z,24.30
2022-08-05T06:01:23.721Z,24.29
2022-08-05T06:02:37.775Z,24.27
2022-08-05T06:04:00.684Z,24.27
2022-08-05T06:05:16.622Z,24.26
2022-08-05T06:06:25.002Z,24.26
2022-08-05T06:07:42.053Z,24.24
2022-08-05T06:09:09.441Z,24.21
2022-08-05T06:10:36.750Z,24.20
2022-08-05T06:12:01.492Z,24.19
2022-08-05T06:13:11.277Z,24.15
2022-08-05T06:14:23.578Z,24.14
2022-08-05T06:16:30.437Z,24.13
2022-08-05T06:17:24.309Z,24.11
2022-08-05T06:18:39.375Z,24.09
2022-08-05T06:19:56.678Z,24.08
2022-08-05T06:21:18.469Z,24.07
2022-08-05T06:22:35.815Z,24.09
2022-08-05T06:23:44.060Z,24.08
2022-08-05T06:24:52.170Z,24.08
2022-08-05T06:26:13.690Z,24.09
2022-08-05T06:28:11.073Z,24.08
2022-08-05T06:28:59.946Z,24.07
2022-08-05T06:30:20.087Z,24.07
2022-08-05T06:31:32.886Z,24.07
2022-08-05T06:32:41.339Z,24.06
2022-08-05T06:34:06.934Z,24.04
2022-08-05T06:36:03.776Z,24.01
2022-08-05T06:36:56.983Z,23.97
2022-08-05T06:38:11.501Z,23.94
2022-08-05T06:39:24.583Z,23.93
2022-08-05T06:40:44.269Z,23.91
2022-08-05T06:41:55.023Z,23.90
2022-08-05T06:43:05.264Z,23.89
2022-08-05T06:44:34.129Z,23.85
2022-08-05T06:45:45.136Z,23.83
2022-08-05T06:47:30.100Z,23.81
2022-08-05T06:48:55.279Z,23.79
2022-08-05T06:50:10.974Z,23.80
2022-08-05T06:51:29.915Z,23.78
2022-08-05T06:52:40.288Z,23.77
2022-08-05T06:53:53.599Z,23.76
2022-08-05T06:55:04.396Z,23.75
2022-08-05T06:56:26.498Z,23.74
2022-08-05T06:58:03.493Z,23.73
2022-08-05T06:59:15.659Z,23.71
2022-08-05T07:00:26.501Z,23.70
2022-08-05T07:01:40.732Z,23.70
2022-08-05T07:02:54.774Z,23.71
2022-08-05T07:04:05.585Z,23.70
2022-08-05T07:05:18.920Z,23.69
2022-08-05T07:06:32.277Z,23.68
2022-08-05T07:07:43.752Z,23.68
2022-08-05T07:08:54.867Z,23.68
2022-08-05T07:10:03.383Z,23.67
2022-08-05T07:11:15.217Z,23.67
2022-08-05T07:12:49.110Z,23.69
2022-08-05T07:14:20.426Z,23.69
2022-08-05T07:16:01.236Z,23.70
2022-08-05T07:18:08.643Z,23.67
2022-08-05T07:18:47.664Z,23.65
2022-08-05T07:20:31.644Z,23.64
2022-08-05T07:21:27.758Z,23.64
2022-08-05T07:23:00.514Z,23.64
2022-08-05T07:24:11.139Z,23.62
2022-08-05T07:25:54.392Z,23.63
2022-08-05T07:26:49.400Z,23.61
2022-08-05T07:28:03.906Z,23.61
2022-08-05T07:29:15.595Z,23.60
2022-08-05T07:30:31.058Z,23.60
2022-08-05T07:31:55.102Z,23.59
2022-08-05T07:33:15.946Z,23.59
2022-08-05T07:34:28.673Z,23.58
2022-08-05T07:35:55.602Z,23.59
2022-08-05T07:37:07.875Z,23.59
2022-08-05T07:38:26.401Z,23.59
2022-08-05T07:40:27.111Z,23.58
2022-08-05T07:42:08.073Z,23.56
2022-08-05T07:42:51.912Z,23.55
2022-08-05T07:44:00.705Z,23.54
2022-08-05T07:45:09.505Z,23.54
2022-08-05T07:46:25.420Z,23.51
2022-08-05T07:47:42.302Z,23.49
2022-08-05T07:49:02.384Z,23.47
2022-08-05T07:50:16.678Z,23.45
2022-08-05T07:51:37.174Z,23.45
2022-08-05T07:52:49.718Z,23.43
2022-08-05T07:53:58.314Z,23.43
2022-08-05T07:55:15.804Z,23.44
2022-08-05T07:57:00.644Z,23.42
2022-08-05T07:58:06.056Z,23.43
2022-08-05T07:59:18.262Z,23.47
2022-08-05T08:00:31.927Z,23.44
2022-08-05T08:01:52.009Z,23.42
2022-08-05T08:03:14.229Z,23.40
2022-08-05T08:04:38.166Z,23.41
2022-08-05T08:05:49.758Z,23.39
2022-08-05T08:07:00.353Z,23.36
2022-08-05T08:08:15.936Z,23.33
2022-08-05T08:09:29.510Z,23.32
2022-08-05T08:10:37.234Z,23.31
2022-08-05T08:12:00.238Z,23.30
2022-08-05T08:13:14.744Z,23.30
2022-08-05T08:14:30.807Z,23.32
2022-08-05T08:16:35.277Z,23.32
2022-08-05T08:17:07.604Z,23.28
2022-08-05T08:18:20.831Z,23.28
2022-08-05T08:20:21.965Z,23.25
2022-08-05T08:21:03.912Z,23.22
2022-08-05T08:22:19.711Z,23.21
2022-08-05T08:24:02.441Z,23.18
2022-08-05T08:25:03.301Z,23.16
2022-08-05T08:26:11.324Z,23.15
2022-08-05T08:27:19.389Z,23.16
2022-08-05T08:28:37.243Z,23.16
2022-08-05T08:30:05.880Z,23.13
2022-08-05T08:31:33.009Z,23.13
2022-08-05T08:32:41.882Z,23.14
2022-08-05T08:33:51.555Z,23.15
2022-08-05T08:35:02.068Z,23.16
2022-08-05T08:36:29.479Z,23.16
2022-08-05T08:37:40.594Z,23.16
2022-08-05T08:38:59.383Z,23.13
2022-08-05T08:40:10.790Z,23.15
2022-08-05T08:41:19.380Z,23.17
2022-08-05T08:42:34.361Z,23.15
2022-08-05T08:45:23.002Z,23.12
2022-08-05T08:45:27.143Z,23.11
2022-08-05T08:46:39.725Z,23.11
2022-08-05T08:48:07.730Z,23.12
2022-08-05T08:50:06.121Z,23.10
2022-08-05T08:51:03.492Z,23.09
2022-08-05T08:52:19.496Z,23.09
2022-08-05T08:53:30.310Z,23.09
2022-08-05T08:54:42.259Z,23.06
2022-08-05T08:56:03.788Z,23.06
2022-08-05T08:57:16.425Z,23.05
2022-08-05T08:58:37.480Z,23.04
2022-08-05T08:59:55.991Z,23.05
2022-08-05T09:01:06.442Z,23.04
2022-08-05T09:02:24.342Z,23.03
2022-08-05T09:03:40.553Z,23.03
2022-08-05T09:05:17.917Z,23.02
2022-08-05T09:06:32.354Z,23.01
2022-08-05T09:07:57.129Z,23.02
2022-08-05T09:09:07.475Z,23.01
2022-08-05T09:10:16.761Z,23.01
2022-08-05T09:11:52.505Z,23.02
2022-08-05T09:12:54.027Z,23.04
2022-08-05T09:14:54.574Z,23.04
2022-08-05T09:15:37.311Z,23.04
2022-08-05T09:16:48.653Z,23.02
2022-08-05T09:17:56.760Z,23.00
2022-08-05T09:19:07.184Z,23.01
2022-08-05T09:20:36.216Z,23.00
2022-08-05T09:22:22.777Z,22.99
2022-08-05T09:23:22.388Z,22.98
2022-08-05T09:24:32.546Z,22.96
2022-08-05T09:26:02.703Z,22.95
2022-08-05T09:28:04.107Z,22.94
2022-08-05T09:29:11.670Z,22.92
2022-08-05T09:30:31.007Z,22.92
2022-08-05T09:32:42.046Z,22.92
2022-08-05T09:33:15.375Z,22.91
2022-08-05T09:34:28.814Z,22.92
2022-08-05T09:35:37.410Z,22.92
2022-08-05T09:36:54.701Z,22.91
2022-08-05T09:38:12.984Z,22.90
2022-08-05T09:39:27.817Z,22.91
2022-08-05T09:40:56.161Z,22.90
2022-08-05T09:42:06.502Z,22.90
2022-08-05T09:43:41.667Z,22.88
2022-08-05T09:45:17.946Z,22.86
2022-08-05T09:46:31.239Z,22.85
2022-08-05T09:47:55.130Z,22.85
2022-08-05T09:49:19.686Z,22.87
2022-08-05T09:50:44.634Z,22.86
2022-08-05T09:51:55.025Z,22.86
2022-08-05T09:53:03.514Z,22.86
2022-08-05T09:54:14.186Z,22.86
2022-08-05T09:55:58.062Z,22.85
2022-08-05T09:56:52.297Z,22.85
2022-08-05T09:58:00.382Z,22.85
2022-08-05T09:59:11.304Z,22.85
2022-08-05T10:00:30.644Z,22.85
2022-08-05T10:01:45.843Z,22.85
2022-08-05T10:02:59.046Z,22.84
2022-08-05T10:04:16.010Z,22.83
2022-08-05T10:05:26.955Z,22.82
2022-08-05T10:06:36.518Z,22.84
2022-08-05T10:08:36.791Z,22.81
2022-08-05T10:09:45.229Z,22.79
2022-08-05T10:10:57.527Z,22.78
2022-08-05T10:12:30.269Z,22.77
2022-08-05T10:13:45.799Z,22.77
2022-08-05T10:15:24.099Z,22.77
2022-08-05T10:16:42.068Z,22.74
2022-08-05T10:18:24.445Z,22.72
2022-08-05T10:20:03.246Z,22.70
2022-08-05T10:21:11.784Z,22.70
2022-08-05T10:22:29.737Z,22.70
2022-08-05T10:23:59.008Z,22.69
2022-08-05T10:25:14.244Z,22.69
2022-08-05T10:26:32.462Z,22.69
2022-08-05T10:28:13.857Z,22.68
2022-08-05T10:29:12.394Z,22.66
2022-08-05T10:32:49.510Z,22.66
2022-08-05T10:32:52.444Z,22.64
2022-08-05T10:33:19.608Z,22.63
2022-08-05T10:34:31.221Z,22.62
2022-08-05T10:35:40.506Z,22.57
2022-08-05T10:36:55.017Z,22.57
2022-08-05T10:38:06.017Z,22.58
2022-08-05T10:40:04.215Z,22.58
2022-08-05T10:41:06.566Z,22.57
2022-08-05T10:42:33.454Z,22.55
2022-08-05T10:44:02.283Z,22.53
2022-08-05T10:45:23.711Z,22.50
2022-08-05T10:46:54.448Z,22.46
2022-08-05T10:48:40.663Z,22.45
2022-08-05T10:50:32.398Z,22.44
2022-08-05T10:51:57.690Z,22.44
2022-08-05T10:53:12.401Z,22.45
2022-08-05T10:54:56.456Z,22.46
2022-08-05T10:56:26.895Z,22.45
2022-08-05T10:57:38.689Z,22.43
2022-08-05T10:58:56.195Z,22.43
2022-08-05T11:00:24.415Z,22.40
2022-08-05T11:02:04.874Z,22.39
2022-08-05T11:03:26.006Z,22.37
2022-08-05T11:04:44.007Z,22.38
2022-08-05T11:06:17.609Z,22.39
2022-08-05T11:07:33.247Z,22.39
2022-08-05T11:09:32.344Z,22.40
2022-08-05T11:11:01.457Z,22.41
2022-08-05T11:12:38.389Z,22.42
2022-08-05T11:13:58.143Z,22.42
2022-08-05T11:15:23.613Z,22.43
2022-08-05T11:17:57.948Z,22.39
2022-08-05T11:20:10.047Z,22.37
2022-08-05T11:20:58.218Z,22.38
2022-08-05T11:22:42.663Z,22.39
2022-08-05T11:24:04.787Z,22.39
2022-08-05T11:26:09.052Z,22.39
2022-08-05T11:27:50.925Z,22.37
2022-08-05T11:29:12.196Z,22.35
2022-08-05T11:30:21.947Z,22.34
2022-08-05T11:31:57.290Z,22.33
2022-08-05T11:33:46.041Z,22.33
2022-08-05T11:34:58.519Z,22.34
2022-08-05T11:36:33.924Z,22.35
2022-08-05T11:38:28.187Z,22.35
2022-08-05T11:39:14.595Z,22.37
2022-08-05T11:40:22.856Z,22.39
2022-08-05T11:41:57.877Z,22.40
2022-08-05T11:43:01.966Z,22.40
2022-08-05T11:44:40.159Z,22.40
2022-08-05T11:46:27.170Z,22.40
2022-08-05T11:47:48.545Z,22.39
2022-08-05T11:49:01.908Z,22.39
2022-08-05T11:50:14.145Z,22.40
2022-08-05T11:51:44.829Z,22.41
2022-08-05T11:52:58.552Z,22.42
2022-08-05T11:54:06.634Z,22.42
2022-08-05T11:55:18.275Z,22.42
2022-08-05T11:56:50.404Z,22.42
2022-08-05T11:58:11.012Z,22.42
2022-08-05T11:59:28.255Z,22.41
2022-08-05T12:00:37.984Z,22.41
2022-08-05T12:02:03.502Z,22.40
2022-08-05T12:03:31.564Z,22.40
2022-08-05T12:04:59.356Z,22.40
2022-08-05T12:06:09.809Z,22.40
2022-08-05T12:07:18.985Z,22.40
2022-08-05T12:08:53.855Z,22.39
2022-08-05T12:10:09.429Z,22.40
2022-08-05T12:11:39.859Z,22.41
2022-08-05T12:12:59.843Z,22.41
2022-08-05T12:14:12.707Z,22.41
2022-08-05T12:15:37.974Z,22.40
2022-08-05T12:16:49.571Z,22.39
2022-08-05T12:18:03.709Z,22.38
2022-08-05T12:20:26.825Z,22.38
2022-08-05T12:20:42.443Z,22.39
2022-08-05T12:21:52.792Z,22.39
2022-08-05T12:23:13.839Z,22.39
2022-08-05T12:24:24.744Z,22.39
2022-08-05T12:25:32.833Z,22.40
2022-08-05T12:26:44.551Z,22.41
2022-08-05T12:27:53.191Z,22.42
2022-08-05T12:29:03.538Z,22.42
2022-08-05T12:30:15.480Z,22.41
2022-08-05T12:31:33.684Z,22.41
2022-08-05T12:32:56.410Z,22.40
2022-08-05T12:34:08.657Z,22.40
2022-08-05T12:35:39.416Z,22.40
2022-08-05T12:36:49.601Z,22.40
2022-08-05T12:38:00.589Z,22.41
2022-08-05T12:39:10.818Z,22.42
2022-08-05T12:40:26.482Z,22.43
2022-08-05T12:41:36.119Z,22.44
2022-08-05T12:42:53.644Z,22.44
2022-08-05T12:44:03.304Z,22.43
2022-08-05T12:45:11.109Z,22.43
2022-08-05T12:46:31.562Z,22.40
2022-08-05T12:47:43.291Z,22.39
2022-08-05T12:49:12.998Z,22.39
2022-08-05T12:50:23.411Z,22.38
2022-08-05T12:52:13.746Z,22.38
2022-08-05T12:53:37.131Z,22.36
2022-08-05T12:54:53.650Z,22.35
2022-08-05T12:56:34.460Z,22.37
2022-08-05T12:58:31.237Z,22.36
2022-08-05T13:00:08.879Z,22.36
2022-08-05T13:02:04.443Z,22.34
2022-08-05T13:02:39.880Z,22.35
2022-08-05T13:03:49.087Z,22.35
2022-08-05T13:05:00.082Z,22.35
2022-08-05T13:06:21.908Z,22.36
2022-08-05T13:07:57.337Z,22.38
2022-08-05T13:09:09.570Z,22.37
2022-08-05T13:10:25.861Z,22.37
2022-08-05T13:12:02.943Z,22.38
2022-08-05T13:13:13.178Z,22.38
2022-08-05T13:14:59.129Z,22.37
2022-08-05T13:16:16.759Z,22.36
2022-08-05T13:17:31.957Z,22.38
2022-08-05T13:19:03.065Z,22.39
2022-08-05T13:20:24.611Z,22.41
2022-08-05T13:21:38.079Z,22.43
2022-08-05T13:22:59.837Z,22.45
2022-08-05T13:24:10.071Z,22.47
2022-08-05T13:25:51.202Z,22.48
2022-08-05T13:26:55.871Z,22.48
2022-08-05T13:28:05.822Z,22.49
2022-08-05T13:29:19.063Z,22.48
2022-08-05T13:30:43.853Z,22.46
2022-08-05T13:32:05.024Z,22.48
2022-08-05T13:34:25.160Z,22.48
2022-08-05T13:34:46.025Z,22.48
2022-08-05T13:35:53.933Z,22.50
2022-08-05T13:37:03.476Z,22.51
2022-08-05T13:38:30.312Z,22.52
2022-08-05T13:40:15.890Z,22.53
2022-08-05T13:41:16.804Z,22.54
2022-08-05T13:42:25.778Z,22.55
2022-08-05T13:43:44.331Z,22.56
2022-08-05T13:45:04.341Z,22.58
2022-08-05T13:46:14.372Z,22.60
2022-08-05T13:47:35.101Z,22.60
2022-08-05T13:48:57.635Z,22.61
2022-08-05T13:50:14.785Z,22.64
2022-08-05T13:51:40.014Z,22.69
2022-08-05T13:52:52.973Z,22.71
2022-08-05T13:54:12.519Z,22.73
2022-08-05T13:55:40.758Z,22.75
2022-08-05T13:56:52.716Z,22.77
2022-08-05T13:58:05.716Z,22.79
2022-08-05T13:59:19.461Z,22.81
2022-08-05T14:00:29.691Z,22.82
2022-08-05T14:01:46.617Z,22.82
2022-08-05T14:03:14.694Z,22.81
2022-08-05T14:04:43.672Z,22.82
2022-08-05T14:06:25.265Z,22.85
2022-08-05T14:08:00.111Z,22.88
2022-08-05T14:09:03.487Z,22.92
2022-08-05T14:10:28.758Z,22.98
2022-08-05T14:12:00.340Z,23.02
2022-08-05T14:13:10.413Z,23.08
2022-08-05T14:14:29.648Z,23.14
2022-08-05T14:16:07.160Z,23.21
2022-08-05T14:17:17.694Z,23.30
2022-08-05T14:18:27.364Z,23.36
2022-08-05T14:19:54.550Z,23.43
2022-08-05T14:22:07.827Z,23.50
2022-08-05T14:22:36.298Z,23.54
2022-08-05T14:23:45.328Z,23.60
2022-08-05T14:24:53.808Z,23.66
2022-08-05T14:26:01.621Z,23.71
2022-08-05T14:27:17.838Z,23.76
2022-08-05T14:28:28.186Z,23.83
2022-08-05T14:29:37.734Z,23.90
2022-08-05T14:30:46.412Z,23.97
2022-08-05T14:32:12.168Z,24.02
2022-08-05T14:33:57.091Z,24.08
2022-08-05T14:34:59.560Z,24.17
2022-08-05T14:36:08.283Z,24.24
2022-08-05T14:37:18.546Z,24.33
2022-08-05T14:38:34.463Z,24.39
2022-08-05T14:39:49.401Z,24.46
2022-08-05T14:41:06.370Z,24.54
2022-08-05T14:42:21.100Z,24.63
2022-08-05T14:43:58.883Z,24.72
2022-08-05T14:45:03.084Z,24.86
2022-08-05T14:46:13.263Z,24.99
2022-08-05T14:48:04.145Z,25.09
2022-08-05T14:48:51.347Z,25.19
2022-08-05T14:50:09.009Z,25.29
2022-08-05T14:51:31.098Z,25.45
2022-08-05T14:52:52.321Z,25.62
2022-08-05T14:54:27.602Z,25.80
2022-08-05T14:55:39.377Z,26.00
2022-08-05T14:56:51.917Z,26.18
2022-08-05T14:58:11.828Z,26.37
2022-08-05T14:59:23.711Z,26.52
2022-08-05T15:00:33.471Z,26.61
2022-08-05T15:01:48.430Z,26.72
2022-08-05T15:03:00.675Z,26.89
2022-08-05T15:04:15.147Z,27.11
2022-08-05T15:05:29.599Z,27.41
2022-08-05T15:06:40.800Z,27.70
2022-08-05T15:08:09.094Z,27.93
2022-08-05T15:09:51.388Z,28.17
2022-08-05T15:10:50.079Z,28.36
2022-08-05T15:12:01.847Z,28.49
2022-08-05T15:13:14.645Z,28.63
2022-08-05T15:14:35.794Z,28.73
2022-08-05T15:15:55.468Z,28.82
2022-08-05T15:17:04.164Z,28.91
2022-08-05T15:18:12.666Z,29.07
2022-08-05T15:19:26.550Z,29.18
2022-08-05T15:20:34.171Z,29.33
2022-08-05T15:21:45.172Z,29.50
2022-08-05T15:22:55.173Z,29.69
2022-08-05T15:24:02.779Z,29.64
2022-08-05T15:25:15.119Z,29.66
2022-08-05T15:26:33.094Z,29.79
2022-08-05T15:27:52.016Z,30.00
2022-08-05T15:29:03.681Z,30.23
2022-08-05T15:30:14.177Z,30.39
2022-08-05T15:31:25.027Z,30.47
2022-08-05T15:32:44.526Z,30.56
2022-08-05T15:34:18.811Z,30.55
2022-08-05T15:35:24.133Z,30.68
2022-08-05T15:36:37.431Z,30.82
2022-08-05T15:38:08.401Z,30.92
2022-08-05T15:40:59.023Z,31.07
2022-08-05T15:41:04.532Z,31.28
2022-08-05T15:42:54.460Z,31.46
2022-08-05T15:43:47.003Z,31.64
2022-08-05T15:44:56.878Z,31.89
2022-08-05T15:46:07.500Z,32.05
2022-08-05T15:47:20.771Z,32.14
2022-08-05T15:48:32.589Z,32.16
2022-08-05T15:49:58.816Z,32.21
2022-08-05T15:51:10.071Z,32.17
2022-08-05T15:52:29.474Z,32.23
2022-08-05T15:53:56.260Z,32.26
2022-08-05T15:55:08.069Z,32.12
2022-08-05T15:56:22.039Z,32.03
2022-08-05T15:57:33.041Z,32.02
2022-08-05T15:58:43.555Z,32.02
2022-08-05T15:59:56.643Z,31.89
2022-08-05T16:01:17.399Z,31.79
2022-08-05T16:02:27.763Z,31.67
2022-08-05T16:03:41.109Z,31.73
2022-08-05T16:04:52.498Z,31.87
2022-08-05T16:06:02.514Z,32.11
2022-08-05T16:07:11.018Z,32.29
2022-08-05T16:08:19.388Z,32.43
2022-08-05T16:09:30.551Z,32.53
2022-08-05T16:10:43.947Z,32.56
2022-08-05T16:11:53.188Z,32.68
2022-08-05T16:13:02.571Z,32.80
2022-08-05T16:14:17.112Z,32.85
2022-08-05T16:15:32.417Z,33.03
2022-08-05T16:16:45.460Z,33.22
2022-08-05T16:17:57.859Z,33.38
2022-08-05T16:19:09.747Z,33.53
2022-08-05T16:20:19.780Z,33.59
2022-08-05T16:22:00.835Z,33.68
2022-08-05T16:22:59.533Z,33.75
2022-08-05T16:24:35.839Z,33.73
2022-08-05T16:25:43.085Z,33.80
2022-08-05T16:27:02.139Z,33.80
2022-08-05T16:28:10.924Z,33.53
2022-08-05T16:29:22.875Z,33.34
2022-08-05T16:30:33.340Z,33.18
2022-08-05T16:31:56.798Z,33.17
2022-08-05T16:33:06.378Z,33.31
2022-08-05T16:34:15.621Z,33.42
2022-08-05T16:35:27.676Z,33.58
2022-08-05T16:36:42.778Z,33.56
2022-08-05T16:38:16.198Z,33.52
2022-08-05T16:40:04.112Z,33.43
2022-08-05T16:40:59.724Z,33.45
2022-08-05T16:42:13.787Z,33.51
2022-08-05T16:43:30.606Z,33.62
2022-08-05T16:44:40.264Z,33.71
2022-08-05T16:46:05.963Z,33.81
2022-08-05T16:47:28.919Z,33.68
2022-08-05T16:48:46.405Z,33.72
2022-08-05T16:49:54.761Z,33.88
2022-08-05T16:51:09.203Z,33.98
2022-08-05T16:52:18.724Z,33.90
2022-08-05T16:53:32.053Z,33.93
2022-08-05T16:54:41.291Z,34.03
2022-08-05T16:55:52.461Z,34.18